Latest Weather Observations for Cape Otway

IDV60801

Issued at 9:13 pm EDT Friday 13 December 2019 (issued every 10 minutes, with the page automatically refreshed every 10 minutes)

About weather observations | Map of weather stations | Latest weather observations for VIC | Other Formats
Station Details ID: 090015 Name: CAPE OTWAY LIGHTHOUSE Lat: -38.86 Lon: 143.51 Height: 82.0 m
Data from the previous 72 hours. | See also: Recent months at Cape Otway
Date/Time
EDT
Temp
°C
App
Temp
°C
Dew
Point
°C
Rel
Hum
%
Delta-T
°C
Wind Press
QNH
hPa
Press
MSL
hPa
Rain since
9am
mm
Dir  Spd
km/h
Gust
km/h
Spd
kts
Gust
kts
13/09:00pm 13.5 7.4 12.9 96 0.3 W 37 50 20 27 1015.3 1015.1 1.6
13/08:30pm 13.6 7.9 13.0 96 0.3 W 35 48 19 26 1015.5 1015.3 1.6
13/08:00pm 13.5 7.0 12.9 96 0.3 W 39 54 21 29 1015.6 1015.4 1.6
13/07:39pm 13.6 7.5 13.0 96 0.3 W 37 56 20 30 1015.5 1015.3 1.4
13/07:30pm 13.6 7.5 13.0 96 0.3 W 37 48 20 26 1015.5 1015.3 1.4
13/07:00pm 13.6 7.5 13.0 96 0.3 W 37 50 20 27 1015.2 1015.0 1.2
13/06:31pm 13.6 8.4 12.8 95 0.4 W 32 50 17 27 1015.3 1015.1 1.2
13/06:30pm 13.6 8.2 12.8 95 0.4 W 33 50 18 27 1015.3 1015.1 1.2
13/06:00pm 13.4 7.9 12.6 95 0.4 W 33 54 18 29 1015.3 1015.1 1.0
13/05:30pm 13.2 7.9 12.4 95 0.4 WNW 32 50 17 27 1015.4 1015.2 0.8
13/05:25pm 13.3 8.0 12.5 95 0.4 WNW 32 50 17 27 1015.4 1015.2 0.6
13/05:00pm 13.3 8.0 12.4 94 0.5 WNW 32 46 17 25 1015.3 1015.1 0.4
13/04:34pm 13.3 7.7 12.2 93 0.6 W 33 52 18 28 1015.6 1015.4 0.4
13/04:30pm 13.3 7.0 12.2 93 0.6 W 37 52 20 28 1015.7 1015.5 0.4
13/04:00pm 13.4 8.7 12.1 92 0.7 WNW 28 43 15 23 1015.6 1015.4 0.0
13/03:30pm 13.5 7.8 11.9 90 0.9 W 33 54 18 29 1015.8 1015.6 0.0
13/03:09pm 13.4 7.8 11.6 89 1.0 W 32 50 17 27 1016.0 1015.8 0.0
13/03:00pm 13.5 7.7 11.4 87 1.1 W 33 50 18 27 1016.0 1015.8 0.0
13/02:44pm 13.6 7.3 11.1 85 1.3 W 35 54 19 29 1016.2 1016.0 0.0
13/02:30pm 13.8 8.0 11.5 86 1.2 W 33 44 18 24 1016.1 1015.9 0.0
13/02:00pm 13.8 7.4 10.6 81 1.7 W 35 56 19 30 1016.4 1016.2 0.0
13/01:56pm 14.0 7.7 11.0 82 1.6 W 35 54 19 29 1016.4 1016.2 0.0
13/01:30pm 14.0 7.0 11.2 83 1.5 W 39 52 21 28 1016.6 1016.5 0.0
13/01:00pm 14.3 8.3 10.7 79 1.9 W 33 44 18 24 1016.7 1016.6 0.0
13/12:30pm 14.1 7.8 10.9 81 1.7 W 35 48 19 26 1017.0 1016.9 0.0
13/12:00pm 14.5 9.4 10.7 78 2.0 W 28 39 15 21 1017.2 1017.1 0.0
13/11:30am 14.2 8.1 10.4 78 2.0 W 33 44 18 24 1017.5 1017.4 0.0
13/11:00am 13.8 7.5 9.8 77 2.1 W 33 50 18 27 1017.7 1017.6 0.0
13/10:30am 14.1 7.6 8.9 71 2.6 W 33 44 18 24 1017.7 1017.6 0.0
13/10:00am 13.9 7.2 9.7 76 2.2 W 35 44 19 24 1017.8 1017.7 0.0
13/09:30am 13.3 7.4 10.3 82 1.6 W 32 43 17 23 1018.0 1017.9 0.0
13/09:00am 13.8 7.3 8.8 72 2.5 W 33 43 18 23 1018.1 1018.0 0.2
13/08:30am 12.7 7.3 9.5 81 1.6 W 28 44 15 24 1018.0 1017.9 0.2
13/08:00am 12.9 7.1 9.4 79 1.8 W 30 41 16 22 1017.9 1017.8 0.2
13/07:30am 13.2 7.5 8.3 72 2.4 W 28 39 15 21 1017.9 1017.8 0.2
13/07:00am 12.9 6.6 7.4 69 2.7 W 30 39 16 21 1017.6 1017.5 0.2
13/06:30am 12.7 7.3 7.8 72 2.4 W 26 37 14 20 1017.4 1017.3 0.2
13/06:00am 12.5 6.9 7.0 69 2.7 W 26 35 14 19 1017.4 1017.3 0.2
13/05:30am 12.5 7.2 6.8 68 2.7 W 24 35 13 19 1017.5 1017.4 0.2
13/05:00am 12.2 6.5 6.9 70 2.5 WSW 26 37 14 20 1017.5 1017.4 0.2
13/04:30am 12.5 6.7 7.8 73 2.3 W 28 39 15 21 1017.7 1017.6 0.2
13/04:00am 12.2 6.9 6.9 70 2.5 W 24 33 13 18 1017.9 1017.8 0.2
13/03:30am 12.0 6.6 6.5 69 2.6 WSW 24 35 13 19 1018.3 1018.2 0.2
13/03:00am 12.1 5.8 5.9 66 2.9 WSW 28 39 15 21 1019.0 1018.9 0.2
13/02:30am 12.1 6.7 6.4 68 2.7 WSW 24 35 13 19 1019.2 1019.1 0.2
13/02:00am 12.3 7.0 6.6 68 2.7 WSW 24 35 13 19 1019.7 1019.6 0.2
13/01:30am 12.0 7.0 6.3 68 2.7 W 22 30 12 16 1019.7 1019.6 0.2
13/01:00am 12.0 6.9 6.1 67 2.8 WSW 22 32 12 17 1019.9 1019.8 0.2
13/12:30am 12.2 7.6 6.5 68 2.7 WSW 20 32 11 17 1020.4 1020.3 0.2
13/12:00am 12.1 6.7 6.4 68 2.7 WSW 24 32 13 17 1020.7 1020.6 0.2
 
Date/Time
EDT
Temp
°C
App
Temp
°C
Dew
Point
°C
Rel
Hum
%
Delta-T
°C
Wind Press
QNH
hPa
Press
MSL
hPa
Rain since
9am
mm
Dir  Spd
km/h
Gust
km/h
Spd
kts
Gust
kts
12/11:30pm 12.2 7.7 6.9 70 2.5 WSW 20 32 11 17 1020.7 1020.6 0.2
12/11:00pm 12.5 7.2 7.0 69 2.6 WSW 24 32 13 17 1020.8 1020.7 0.2
12/10:30pm 12.3 6.8 6.1 66 2.9 WSW 24 35 13 19 1020.9 1020.8 0.2
12/10:00pm 12.4 7.8 6.5 67 2.8 WSW 20 32 11 17 1020.6 1020.5 0.2
12/09:30pm 12.3 7.3 6.4 67 2.8 SW 22 28 12 15 1020.6 1020.5 0.2
12/09:00pm 12.6 6.9 6.6 67 2.9 SW 26 39 14 21 1020.7 1020.6 0.2
12/08:30pm 12.6 6.9 6.6 67 2.9 SW 26 33 14 18 1020.5 1020.4 0.2
12/08:00pm 12.9 6.9 6.9 67 2.9 SW 28 37 15 20 1020.3 1020.2 0.0
12/07:30pm 12.8 7.1 6.6 66 3.0 SW 26 35 14 19 1020.0 1019.9 0.0
12/07:00pm 12.8 7.5 6.6 66 3.0 SW 24 32 13 17 1019.9 1019.8 0.0
12/06:30pm 13.4 7.3 6.7 64 3.2 SW 28 35 15 19 1019.5 1019.4 0.0
12/06:00pm 13.7 7.3 7.0 64 3.3 SW 30 39 16 21 1019.3 1019.2 0.0
12/05:30pm 13.8 7.5 7.3 65 3.2 SW 30 39 16 21 1019.4 1019.3 0.0
12/05:00pm 13.0 6.8 7.7 70 2.6 SW 30 41 16 22 1019.4 1019.3 0.0
12/04:30pm 13.3 8.8 10.1 81 1.7 SW 24 33 13 18 1019.5 1019.4 0.0
12/04:11pm 13.2 6.9 8.9 75 2.2 SW 32 43 17 23 1019.4 1019.3 0.0
12/04:00pm 14.3 10.2 10.1 76 2.2 WSW 22 28 12 15 1019.4 1019.3 0.0
12/03:30pm 13.6 7.7 9.1 74 2.3 SW 30 39 16 21 1019.5 1019.4 0.0
12/03:00pm 14.8 8.7 9.6 71 2.7 WSW 32 44 17 24 1019.3 1019.2 0.0
12/02:30pm 14.5 8.9 10.1 75 2.3 WSW 30 44 16 24 1019.3 1019.2 0.0
12/02:00pm 14.3 8.8 9.1 71 2.7 WSW 28 43 15 23 1019.4 1019.3 0.0
12/01:30pm 15.1 9.1 8.6 65 3.3 W 30 41 16 22 1019.4 1019.3 0.0
12/01:00pm 15.2 9.5 9.8 70 2.8 W 30 41 16 22 1019.6 1019.5 0.0
12/12:30pm 14.8 9.3 9.2 69 2.9 W 28 37 15 20 1019.7 1019.6 0.0
12/12:00pm 14.5 9.4 9.1 70 2.8 W 26 35 14 19 1019.6 1019.5 0.0
12/11:30am 13.5 9.4 10.1 80 1.8 W 22 30 12 16 1019.6 1019.5 0.0
12/11:21am 12.7 7.2 9.0 78 1.9 WSW 28 46 15 25 1019.6 1019.5 0.0
12/11:00am 13.5 6.7 7.1 65 3.1 SW 32 44 17 24 1019.4 1019.3 0.0
12/10:30am 13.6 9.1 8.4 71 2.6 W 22 32 12 17 1019.2 1019.1 0.0
12/10:00am 12.9 7.2 8.2 73 2.3 WSW 28 37 15 20 1019.2 1019.1 0.0
12/09:30am 12.8 7.5 8.3 74 2.2 WSW 26 33 14 18 1019.1 1019.0 0.0
12/09:00am 12.4 6.6 8.1 75 2.1 WSW 28 41 15 22 1019.0 1018.9 0.6
12/08:30am 12.2 5.8 8.5 78 1.8 WSW 32 44 17 24 1018.9 1018.8 0.6
12/08:00am 12.4 6.5 9.1 80 1.7 SW 30 44 16 24 1018.6 1018.5 0.6
12/07:30am 12.0 6.0 8.7 80 1.6 SW 30 41 16 22 1018.4 1018.3 0.6
12/07:00am 12.3 5.7 7.6 73 2.3 WSW 32 46 17 25 1018.3 1018.2 0.6
12/06:33am 12.4 5.2 7.5 72 2.4 SW 35 54 19 29 1018.0 1017.9 0.6
12/06:30am 12.3 4.2 7.2 71 2.5 SW 39 54 21 29 1017.9 1017.8 0.6
12/06:00am 12.7 5.2 7.8 72 2.4 SW 37 50 20 27 1017.4 1017.3 0.6
12/05:30am 12.8 5.8 8.5 75 2.1 WSW 35 48 19 26 1017.1 1017.0 0.6
12/05:00am 13.2 8.1 9.3 77 2.0 WSW 26 37 14 20 1016.9 1016.8 0.6
12/04:30am 13.0 8.4 9.6 80 1.7 SW 24 33 13 18 1016.5 1016.4 0.6
12/04:03am 12.9 7.0 9.2 78 1.9 WSW 30 48 16 26 1016.9 1016.8 0.6
12/04:00am 13.0 7.6 9.4 79 1.8 WSW 28 39 15 21 1016.9 1016.8 0.6
12/03:30am 13.2 8.1 10.7 85 1.3 SW 28 37 15 20 1017.2 1017.1 0.6
12/03:00am 13.1 9.0 11.5 90 0.9 WSW 24 37 13 20 1017.5 1017.4 0.6
12/02:30am 12.5 7.6 11.4 93 0.6 WSW 28 39 15 21 1018.1 1018.0 0.6
12/02:00am 12.8 7.1 11.7 93 0.6 WSW 33 50 18 27 1018.3 1018.2 0.6
12/01:54am 12.8 8.0 11.5 92 0.7 WSW 28 50 15 27 1018.3 1018.2 0.4
12/01:30am 12.9 8.4 11.3 90 0.8 WSW 26 37 14 20 1018.4 1018.3 0.2
12/01:00am 13.7 10.5 11.2 85 1.3 W 19 26 10 14 1018.4 1018.3 0.0
12/12:30am 13.8 10.3 10.8 82 1.6 W 20 26 11 14 1018.7 1018.6 0.0
12/12:00am 13.9 10.2 10.1 78 2.0 W 20 26 11 14 1019.0 1018.9 0.0
 
Date/Time
EDT
Temp
°C
App
Temp
°C
Dew
Point
°C
Rel
Hum
%
Delta-T
°C
Wind Press
QNH
hPa
Press
MSL
hPa
Rain since
9am
mm
Dir  Spd
km/h
Gust
km/h
Spd
kts
Gust
kts
11/11:30pm 13.8 9.2 9.8 77 2.1 WSW 24 33 13 18 1019.3 1019.2 0.0
11/11:00pm 13.7 9.9 9.7 77 2.1 W 20 28 11 15 1019.5 1019.4 0.0
11/10:30pm 13.6 9.7 9.6 77 2.1 WSW 20 32 11 17 1019.5 1019.4 0.0
11/10:00pm 13.6 9.9 9.6 77 2.1 WSW 19 26 10 14 1019.3 1019.2 0.0
11/09:30pm 13.3 10.0 9.4 77 2.0 WSW 17 24 9 13 1019.3 1019.2 0.0
11/09:00pm 13.2 9.5 9.3 77 2.0 WSW 19 28 10 15 1019.4 1019.3 0.0
11/08:30pm 13.4 9.1 9.5 77 2.0 WSW 22 33 12 18 1019.6 1019.5 0.0
11/08:00pm 13.4 9.6 9.1 75 2.2 W 19 28 10 15 1019.3 1019.2 0.0
11/07:30pm 13.6 10.2 9.3 75 2.2 W 17 26 9 14 1019.0 1018.9 0.0
11/07:00pm 13.7 10.3 9.0 73 2.4 W 17 22 9 12 1018.9 1018.8 0.0
11/06:30pm 14.5 11.2 9.7 73 2.5 WSW 17 22 9 12 1018.8 1018.7 0.0
11/06:00pm 13.8 9.9 8.8 72 2.5 WSW 19 28 10 15 1019.0 1018.9 0.0
11/05:30pm 14.5 10.8 9.3 71 2.7 WSW 19 24 10 13 1018.9 1018.8 0.0
11/05:00pm 14.8 11.0 9.2 69 2.9 WSW 19 26 10 14 1019.1 1019.0 0.0
11/04:30pm 14.5 11.0 8.7 68 2.9 WSW 17 24 9 13 1019.2 1019.1 0.0
11/04:00pm 14.5 10.7 9.1 70 2.8 WSW 19 24 10 13 1019.3 1019.2 0.0
11/03:30pm 14.6 10.7 8.8 68 3.0 SW 19 24 10 13 1019.4 1019.3 0.0
11/03:00pm 14.7 10.5 8.4 66 3.2 SW 20 24 11 13 1019.5 1019.4 0.0
11/02:30pm 15.5 11.7 9.0 65 3.3 SW 19 24 10 13 1019.6 1019.5 0.0
11/02:00pm 15.3 11.3 9.2 67 3.1 SW 20 24 11 13 1019.6 1019.5 0.0
11/01:30pm 15.1 11.1 9.0 67 3.1 SW 20 28 11 15 1019.8 1019.7 0.0
11/01:00pm 14.9 11.0 9.5 70 2.8 SW 20 24 11 13 1020.0 1019.9 0.0
11/12:30pm 14.7 11.3 9.1 69 2.9 SW 17 20 9 11 1019.9 1019.8 0.0
11/12:00pm 14.5 11.5 9.3 71 2.7 SSW 15 22 8 12 1020.1 1020.0 0.0
11/11:30am 14.2 11.6 9.2 72 2.6 SSW 13 20 7 11 1020.1 1020.0 0.0
11/11:00am 14.2 11.2 9.2 72 2.6 SSW 15 20 8 11 1020.1 1020.0 0.0
11/10:30am 13.8 11.1 8.8 72 2.5 SSW 13 19 7 10 1019.9 1019.8 0.0
11/10:00am 13.6 10.8 8.7 72 2.5 SSW 13 19 7 10 1019.9 1019.8 0.0
11/09:30am 13.5 11.0 8.4 71 2.6 SSW 11 19 6 10 1020.1 1020.0 0.0
11/09:00am 13.4 10.6 8.7 73 2.4 SSW 13 20 7 11 1019.9 1019.8 0.0
11/08:30am 13.4 11.0 8.5 72 2.5 SSW 11 19 6 10 1019.7 1019.6 0.0
11/08:00am 13.4 11.7 8.5 72 2.5 SSW 7 13 4 7 1019.6 1019.5 0.0
11/07:30am 12.9 11.1 8.0 72 2.4 SW 7 11 4 6 1019.5 1019.4 0.0
11/07:00am 12.6 10.8 7.9 73 2.3 SW 7 11 4 6 1019.5 1019.4 0.0
11/06:30am 12.3 10.7 8.0 75 2.1 WSW 6 11 3 6 1019.3 1019.2 0.0
11/06:00am 12.0 9.3 7.3 73 2.3 SW 11 17 6 9 1019.2 1019.1 0.0
11/05:30am 12.0 9.3 7.5 74 2.2 SW 11 19 6 10 1019.3 1019.2 0.0
11/05:00am 12.1 9.1 7.6 74 2.2 SSW 13 20 7 11 1019.4 1019.3 0.0
11/04:30am 12.3 9.3 7.8 74 2.2 SSW 13 22 7 12 1019.5 1019.4 0.0
11/04:00am 12.0 8.6 7.5 74 2.2 SSW 15 22 8 12 1019.6 1019.5 0.0
11/03:30am 12.1 9.8 7.4 73 2.3 SW 9 15 5 8 1019.7 1019.6 0.0
11/03:00am 12.2 9.5 7.5 73 2.3 SSW 11 17 6 9 1019.9 1019.8 0.0
11/02:30am 12.2 9.9 7.3 72 2.4 WSW 9 17 5 9 1020.2 1020.1 0.0
11/02:00am 12.1 9.7 7.0 71 2.4 SW 9 19 5 10 1020.2 1020.1 0.0
11/01:30am 12.1 10.1 7.0 71 2.5 SW 7 11 4 6 1020.6 1020.5 0.0
11/01:00am 12.2 9.8 7.1 71 2.5 SW 9 13 5 7 1020.6 1020.5 0.0
11/12:30am 12.1 9.3 6.8 70 2.5 SW 11 20 6 11 1020.9 1020.8 0.0
11/12:00am 12.1 9.3 6.8 70 2.5 SSW 11 19 6 10 1021.3 1021.2 0.0
 
Date/Time
EDT
Temp
°C
App
Temp
°C
Dew
Point
°C
Rel
Hum
%
Delta-T
°C
Wind Press
QNH
hPa
Press
MSL
hPa
Rain since
9am
mm
Dir  Spd
km/h
Gust
km/h
Spd
kts
Gust
kts
10/11:30pm 12.3 9.1 7.0 70 2.6 SSW 13 26 7 14 1021.6 1021.5 0.0
10/11:00pm 12.3 9.5 6.8 69 2.6 SW 11 19 6 10 1021.7 1021.6 0.0
10/10:30pm 12.4 9.3 7.1 70 2.6 SW 13 22 7 12 1021.8 1021.7 0.0
10/10:00pm 12.5 9.0 7.2 70 2.6 SSW 15 22 8 12 1021.7 1021.6 0.0
10/09:30pm 12.5 9.4 7.2 70 2.6 SSW 13 20 7 11 1021.6 1021.5 0.0

Other formats

Comma delimited format used in spreadsheet applications
http://www.bom.gov.au/fwo/IDV60801/IDV60801.94842.axf

JavaScript Object Notation format (JSON) in row-major order
http://www.bom.gov.au/fwo/IDV60801/IDV60801.94842.json

Data quality

Most of these data are generated automatically and are frequently updated. Quality checks on data are not normally performed. It is possible for incorrect values to appear. Refer to information at About Latest Weather Observations and please check the disclaimer before using these data.